sensor_id;sensor_type;location;lat;lon;timestamp;P1;durP1;ratioP1;P2;durP2;ratioP2
17670;SDS011;8954;48.694;8.940;2023-08-08T07:00:43;300.80;;;86.47;;
17670;SDS011;8954;48.694;8.940;2023-08-08T07:03:10;302.53;;;88.83;;
17670;SDS011;8954;48.694;8.940;2023-08-08T07:05:35;309.37;;;94.57;;
17670;SDS011;8954;48.694;8.940;2023-08-08T07:08:03;313.83;;;94.70;;
17670;SDS011;8954;48.694;8.940;2023-08-08T07:10:28;307.70;;;95.27;;
17670;SDS011;8954;48.694;8.940;2023-08-08T07:12:54;313.03;;;96.47;;
17670;SDS011;8954;48.694;8.940;2023-08-08T07:15:20;314.17;;;101.10;;
17670;SDS011;8954;48.694;8.940;2023-08-08T07:17:45;315.10;;;101.77;;
17670;SDS011;8954;48.694;8.940;2023-08-08T07:20:11;318.93;;;106.60;;
17670;SDS011;8954;48.694;8.940;2023-08-08T07:22:38;314.60;;;103.30;;
17670;SDS011;8954;48.694;8.940;2023-08-08T07:25:04;314.33;;;101.87;;
17670;SDS011;8954;48.694;8.940;2023-08-08T07:27:31;317.23;;;110.30;;
17670;SDS011;8954;48.694;8.940;2023-08-08T07:29:56;311.95;;;112.72;;
17670;SDS011;8954;48.694;8.940;2023-08-08T07:32:22;304.02;;;125.15;;
17670;SDS011;8954;48.694;8.940;2023-08-08T07:34:47;316.63;;;120.90;;
17670;SDS011;8954;48.694;8.940;2023-08-08T07:37:13;320.10;;;125.70;;
17670;SDS011;8954;48.694;8.940;2023-08-08T07:39:39;316.17;;;119.47;;
17670;SDS011;8954;48.694;8.940;2023-08-08T07:42:04;314.03;;;114.80;;
17670;SDS011;8954;48.694;8.940;2023-08-08T07:44:30;331.80;;;132.48;;
17670;SDS011;8954;48.694;8.940;2023-08-08T07:46:57;313.47;;;117.30;;
17670;SDS011;8954;48.694;8.940;2023-08-08T07:49:23;312.57;;;115.80;;
17670;SDS011;8954;48.694;8.940;2023-08-08T07:51:48;315.60;;;120.60;;
17670;SDS011;8954;48.694;8.940;2023-08-08T07:54:14;313.87;;;117.43;;
17670;SDS011;8954;48.694;8.940;2023-08-08T07:56:39;313.60;;;114.13;;
17670;SDS011;8954;48.694;8.940;2023-08-08T07:59:05;314.67;;;117.57;;
17670;SDS011;8954;48.694;8.940;2023-08-08T08:01:30;329.45;;;128.65;;
17670;SDS011;8954;48.694;8.940;2023-08-08T08:03:56;315.33;;;117.90;;
17670;SDS011;8954;48.694;8.940;2023-08-08T08:06:21;277.60;;;107.17;;
17670;SDS011;8954;48.694;8.940;2023-08-08T08:08:47;281.27;;;88.17;;
17670;SDS011;8954;48.694;8.940;2023-08-08T08:11:12;286.10;;;87.80;;
17670;SDS011;8954;48.694;8.940;2023-08-08T08:13:40;293.07;;;90.10;;
17670;SDS011;8954;48.694;8.940;2023-08-08T08:16:05;295.33;;;90.40;;
17670;SDS011;8954;48.694;8.940;2023-08-08T08:18:31;315.73;;;115.43;;
17670;SDS011;8954;48.694;8.940;2023-08-08T08:20:58;316.53;;;117.80;;
17670;SDS011;8954;48.694;8.940;2023-08-08T08:23:24;316.60;;;120.13;;
17670;SDS011;8954;48.694;8.940;2023-08-08T08:25:49;317.93;;;121.83;;
17670;SDS011;8954;48.694;8.940;2023-08-08T08:28:15;312.50;;;120.07;;
17670;SDS011;8954;48.694;8.940;2023-08-08T08:30:41;290.60;;;98.63;;
17670;SDS011;8954;48.694;8.940;2023-08-08T08:33:08;316.20;;;118.67;;
17670;SDS011;8954;48.694;8.940;2023-08-08T08:35:34;298.53;;;104.23;;
17670;SDS011;8954;48.694;8.940;2023-08-08T08:38:00;290.30;;;97.40;;
17670;SDS011;8954;48.694;8.940;2023-08-08T08:40:26;290.63;;;103.70;;
17670;SDS011;8954;48.694;8.940;2023-08-08T08:42:53;280.80;;;96.43;;
17670;SDS011;8954;48.694;8.940;2023-08-08T08:45:19;284.57;;;98.40;;
17670;SDS011;8954;48.694;8.940;2023-08-08T08:47:46;280.30;;;93.13;;
17670;SDS011;8954;48.694;8.940;2023-08-08T08:50:18;294.43;;;102.73;;
17670;SDS011;8954;48.694;8.940;2023-08-08T08:52:44;278.77;;;99.80;;
17670;SDS011;8954;48.694;8.940;2023-08-08T08:55:10;280.23;;;98.37;;
17670;SDS011;8954;48.694;8.940;2023-08-08T08:57:36;275.07;;;102.60;;
17670;SDS011;8954;48.694;8.940;2023-08-08T09:00:02;274.83;;;100.30;;
17670;SDS011;8954;48.694;8.940;2023-08-08T09:02:28;272.70;;;104.63;;
17670;SDS011;8954;48.694;8.940;2023-08-08T09:04:54;272.70;;;108.33;;
17670;SDS011;8954;48.694;8.940;2023-08-08T09:07:20;275.40;;;114.23;;
17670;SDS011;8954;48.694;8.940;2023-08-08T09:09:51;279.57;;;119.97;;
17670;SDS011;8954;48.694;8.940;2023-08-08T09:12:17;278.47;;;123.47;;
17670;SDS011;8954;48.694;8.940;2023-08-08T09:14:43;278.07;;;126.67;;
17670;SDS011;8954;48.694;8.940;2023-08-08T09:17:12;276.07;;;128.67;;
17670;SDS011;8954;48.694;8.940;2023-08-08T09:19:41;278.83;;;136.00;;
17670;SDS011;8954;48.694;8.940;2023-08-08T09:22:08;279.20;;;139.23;;
17670;SDS011;8954;48.694;8.940;2023-08-08T09:24:37;285.47;;;153.03;;
17670;SDS011;8954;48.694;8.940;2023-08-08T09:27:09;286.53;;;162.43;;
17670;SDS011;8954;48.694;8.940;2023-08-08T09:29:35;289.73;;;178.33;;
17670;SDS011;8954;48.694;8.940;2023-08-08T09:32:03;288.83;;;181.63;;
17670;SDS011;8954;48.694;8.940;2023-08-08T09:34:30;288.60;;;187.57;;
17670;SDS011;8954;48.694;8.940;2023-08-08T09:36:56;288.83;;;191.00;;
17670;SDS011;8954;48.694;8.940;2023-08-08T09:39:21;287.27;;;191.90;;
17670;SDS011;8954;48.694;8.940;2023-08-08T09:41:47;290.27;;;202.73;;
17670;SDS011;8954;48.694;8.940;2023-08-08T09:44:13;294.70;;;218.43;;
17670;SDS011;8954;48.694;8.940;2023-08-08T09:46:39;294.50;;;217.63;;
17670;SDS011;8954;48.694;8.940;2023-08-08T09:49:05;287.23;;;199.80;;
17670;SDS011;8954;48.694;8.940;2023-08-08T09:51:31;287.63;;;209.27;;
17670;SDS011;8954;48.694;8.940;2023-08-08T09:53:59;290.97;;;218.73;;
17670;SDS011;8954;48.694;8.940;2023-08-08T09:56:25;287.53;;;207.27;;
17670;SDS011;8954;48.694;8.940;2023-08-08T09:58:51;286.53;;;206.27;;
17670;SDS011;8954;48.694;8.940;2023-08-08T10:01:18;290.17;;;212.40;;
17670;SDS011;8954;48.694;8.940;2023-08-08T10:03:45;287.43;;;207.53;;
17670;SDS011;8954;48.694;8.940;2023-08-08T10:06:13;288.67;;;210.60;;
17670;SDS011;8954;48.694;8.940;2023-08-08T10:08:39;287.80;;;199.27;;
17670;SDS011;8954;48.694;8.940;2023-08-08T10:11:05;286.77;;;195.33;;
17670;SDS011;8954;48.694;8.940;2023-08-08T10:13:34;289.13;;;202.77;;
17670;SDS011;8954;48.694;8.940;2023-08-08T10:16:03;287.93;;;201.57;;
17670;SDS011;8954;48.694;8.940;2023-08-08T10:18:32;287.87;;;200.37;;
17670;SDS011;8954;48.694;8.940;2023-08-08T10:20:58;287.60;;;199.93;;
17670;SDS011;8954;48.694;8.940;2023-08-08T10:23:24;283.13;;;186.87;;
17670;SDS011;8954;48.694;8.940;2023-08-08T10:25:50;284.00;;;189.70;;
17670;SDS011;8954;48.694;8.940;2023-08-08T10:28:18;283.50;;;187.33;;
17670;SDS011;8954;48.694;8.940;2023-08-08T10:30:55;286.50;;;193.87;;
17670;SDS011;8954;48.694;8.940;2023-08-08T10:33:24;283.93;;;188.90;;
17670;SDS011;8954;48.694;8.940;2023-08-08T10:38:22;287.43;;;203.60;;
17670;SDS011;8954;48.694;8.940;2023-08-08T10:41:02;285.90;;;206.17;;
17670;SDS011;8954;48.694;8.940;2023-08-08T10:43:28;291.00;;;221.83;;
17670;SDS011;8954;48.694;8.940;2023-08-08T10:46:04;294.87;;;233.17;;
17670;SDS011;8954;48.694;8.940;2023-08-08T10:48:30;295.20;;;222.67;;
17670;SDS011;8954;48.694;8.940;2023-08-08T10:50:59;299.00;;;216.30;;
17670;SDS011;8954;48.694;8.940;2023-08-08T10:53:25;294.50;;;223.83;;
17670;SDS011;8954;48.694;8.940;2023-08-08T10:55:59;290.27;;;222.77;;
17670;SDS011;8954;48.694;8.940;2023-08-08T10:58:40;296.23;;;244.13;;
17670;SDS011;8954;48.694;8.940;2023-08-08T11:01:07;293.83;;;249.37;;
17670;SDS011;8954;48.694;8.940;2023-08-08T11:03:37;308.47;;;274.90;;
17670;SDS011;8954;48.694;8.940;2023-08-08T11:06:04;284.43;;;227.40;;
17670;SDS011;8954;48.694;8.940;2023-08-08T11:08:34;293.87;;;257.07;;
17670;SDS011;8954;48.694;8.940;2023-08-08T11:11:04;332.87;;;298.97;;
17670;SDS011;8954;48.694;8.940;2023-08-08T11:13:31;347.98;;;313.42;;
17670;SDS011;8954;48.694;8.940;2023-08-08T11:15:56;348.98;;;314.98;;
17670;SDS011;8954;48.694;8.940;2023-08-08T11:18:22;371.30;;;336.75;;
17670;SDS011;8954;48.694;8.940;2023-08-08T11:20:49;379.35;;;344.58;;
17670;SDS011;8954;48.694;8.940;2023-08-08T11:23:15;374.43;;;339.57;;
17670;SDS011;8954;48.694;8.940;2023-08-08T11:25:42;366.97;;;332.30;;
17670;SDS011;8954;48.694;8.940;2023-08-08T11:28:09;368.33;;;333.65;;
17670;SDS011;8954;48.694;8.940;2023-08-08T11:30:42;382.92;;;348.02;;
17670;SDS011;8954;48.694;8.940;2023-08-08T11:33:09;371.73;;;336.60;;
17670;SDS011;8954;48.694;8.940;2023-08-08T11:35:36;354.70;;;320.30;;
17670;SDS011;8954;48.694;8.940;2023-08-08T11:38:02;334.77;;;300.87;;
17670;SDS011;8954;48.694;8.940;2023-08-08T11:40:29;326.93;;;292.93;;
17670;SDS011;8954;48.694;8.940;2023-08-08T11:42:56;316.53;;;282.60;;
17670;SDS011;8954;48.694;8.940;2023-08-08T11:45:22;318.27;;;284.43;;
17670;SDS011;8954;48.694;8.940;2023-08-08T11:47:49;306.27;;;272.53;;
17670;SDS011;8954;48.694;8.940;2023-08-08T11:50:15;310.67;;;277.00;;
17670;SDS011;8954;48.694;8.940;2023-08-08T11:52:42;301.83;;;268.53;;
17670;SDS011;8954;48.694;8.940;2023-08-08T11:55:10;323.57;;;289.83;;
17670;SDS011;8954;48.694;8.940;2023-08-08T11:57:37;326.47;;;292.63;;
17670;SDS011;8954;48.694;8.940;2023-08-08T12:00:04;332.33;;;298.53;;
17670;SDS011;8954;48.694;8.940;2023-08-08T12:02:37;388.77;;;352.77;;
17670;SDS011;8954;48.694;8.940;2023-08-08T12:05:05;338.27;;;304.23;;
17670;SDS011;8954;48.694;8.940;2023-08-08T12:07:32;347.97;;;313.70;;
17670;SDS011;8954;48.694;8.940;2023-08-08T12:09:59;334.57;;;300.63;;
17670;SDS011;8954;48.694;8.940;2023-08-08T12:12:26;332.33;;;298.10;;
17670;SDS011;8954;48.694;8.940;2023-08-08T12:14:53;317.90;;;284.00;;
17670;SDS011;8954;48.694;8.940;2023-08-08T12:17:20;304.50;;;264.63;;
17670;SDS011;8954;48.694;8.940;2023-08-08T12:19:47;304.20;;;253.40;;
17670;SDS011;8954;48.694;8.940;2023-08-08T12:22:13;301.43;;;235.70;;
17670;SDS011;8954;48.694;8.940;2023-08-08T12:24:39;294.93;;;209.30;;
17670;SDS011;8954;48.694;8.940;2023-08-08T12:27:05;295.43;;;208.70;;
17670;SDS011;8954;48.694;8.940;2023-08-08T12:29:31;290.50;;;198.07;;
17670;SDS011;8954;48.694;8.940;2023-08-08T12:31:56;297.07;;;217.27;;
17670;SDS011;8954;48.694;8.940;2023-08-08T12:34:22;293.77;;;213.40;;
17670;SDS011;8954;48.694;8.940;2023-08-08T12:36:47;292.43;;;212.87;;
17670;SDS011;8954;48.694;8.940;2023-08-08T12:39:13;299.80;;;231.27;;
17670;SDS011;8954;48.694;8.940;2023-08-08T12:41:39;297.27;;;221.50;;
17670;SDS011;8954;48.694;8.940;2023-08-08T12:44:05;298.07;;;216.97;;
17670;SDS011;8954;48.694;8.940;2023-08-08T12:46:30;294.03;;;200.60;;
17670;SDS011;8954;48.694;8.940;2023-08-08T12:48:56;292.93;;;182.73;;
17670;SDS011;8954;48.694;8.940;2023-08-08T12:51:22;292.70;;;177.17;;
17670;SDS011;8954;48.694;8.940;2023-08-08T12:53:47;288.07;;;157.17;;
17670;SDS011;8954;48.694;8.940;2023-08-08T12:56:13;286.17;;;146.13;;
17670;SDS011;8954;48.694;8.940;2023-08-08T12:58:39;293.67;;;152.30;;
17670;SDS011;8954;48.694;8.940;2023-08-08T13:01:06;287.63;;;141.93;;
